createdAt,value
2019-06-07T00:01:00.856Z,18.97
2019-06-07T00:03:30.249Z,18.17
2019-06-07T00:05:57.772Z,19.93
2019-06-07T00:08:28.975Z,17.87
2019-06-07T00:10:54.743Z,19.07
2019-06-07T00:13:22.306Z,17.87
2019-06-07T00:15:49.925Z,18.93
2019-06-07T00:18:25.266Z,18.47
2019-06-07T00:20:46.814Z,20.87
2019-06-07T00:23:15.872Z,19.07
2019-06-07T00:25:43.716Z,18.57
2019-06-07T00:28:13.087Z,18.30
2019-06-07T00:30:51.194Z,20.10
2019-06-07T00:33:13.143Z,19.27
2019-06-07T00:35:39.325Z,17.17
2019-06-07T00:38:06.942Z,19.17
2019-06-07T00:40:34.589Z,18.90
2019-06-07T00:43:02.148Z,17.93
2019-06-07T00:45:29.724Z,17.37
2019-06-07T00:47:57.367Z,18.20
2019-06-07T00:50:24.956Z,17.70
2019-06-07T00:53:14.519Z,18.23
2019-06-07T00:55:27.268Z,17.50
2019-06-07T00:57:51.686Z,17.47
2019-06-07T01:00:22.360Z,16.70
2019-06-07T01:02:48.837Z,17.37
2019-06-07T01:05:21.971Z,16.90
2019-06-07T01:07:46.054Z,16.43
2019-06-07T01:10:14.545Z,16.60
2019-06-07T01:12:43.907Z,17.63
2019-06-07T01:15:11.704Z,18.43
2019-06-07T01:17:59.952Z,17.67
2019-06-07T01:20:09.024Z,17.27
2019-06-07T01:22:36.737Z,17.23
2019-06-07T01:25:04.491Z,16.00
2019-06-07T01:27:32.085Z,15.93
2019-06-07T01:29:59.768Z,16.20
2019-06-07T01:32:31.513Z,16.73
2019-06-07T01:34:56.754Z,17.33
2019-06-07T01:37:27.769Z,15.67
2019-06-07T01:39:53.971Z,16.57
2019-06-07T01:42:22.644Z,15.63
2019-06-07T01:44:50.936Z,14.93
2019-06-07T01:47:20.539Z,15.37
2019-06-07T01:49:47.979Z,14.83
2019-06-07T01:52:16.543Z,14.27
2019-06-07T01:54:57.831Z,14.77
2019-06-07T01:59:48.357Z,15.40
2019-06-07T02:02:15.893Z,15.33
2019-06-07T02:04:43.393Z,14.27
2019-06-07T02:07:10.911Z,13.80
2019-06-07T02:09:38.428Z,15.40
2019-06-07T02:12:25.221Z,14.97
2019-06-07T02:14:35.265Z,13.93
2019-06-07T02:17:02.728Z,14.07
2019-06-07T02:19:32.738Z,14.83
2019-06-07T02:21:59.560Z,14.17
2019-06-07T02:24:29.500Z,14.20
2019-06-07T02:26:56.350Z,13.60
2019-06-07T02:29:25.445Z,14.03
2019-06-07T02:31:53.192Z,13.37
2019-06-07T02:34:21.530Z,13.70
2019-06-07T02:36:49.124Z,13.90
2019-06-07T02:39:16.603Z,13.27
2019-06-07T02:41:44.132Z,13.87
2019-06-07T02:44:11.679Z,12.93
2019-06-07T02:46:46.817Z,13.63
2019-06-07T02:49:08.583Z,13.40
2019-06-07T02:51:41.521Z,12.70
2019-06-07T02:54:05.366Z,12.70
2019-06-07T02:56:45.017Z,12.87
2019-06-07T02:59:02.221Z,12.67
2019-06-07T03:01:35.918Z,12.77
2019-06-07T03:03:59.179Z,11.97
2019-06-07T03:06:31.786Z,11.50
2019-06-07T03:08:57.365Z,12.67
2019-06-07T03:11:25.800Z,12.67
2019-06-07T03:13:53.350Z,12.87
2019-06-07T03:16:28.745Z,12.17
2019-06-07T03:19:05.403Z,11.17
2019-06-07T03:21:36.367Z,11.37
2019-06-07T03:24:03.995Z,11.80
2019-06-07T03:26:41.491Z,11.20
2019-06-07T03:29:00.803Z,11.17
2019-06-07T03:31:31.632Z,9.63
2019-06-07T03:33:57.629Z,10.07
2019-06-07T03:36:26.060Z,10.03
2019-06-07T03:38:54.020Z,10.93
2019-06-07T03:41:21.578Z,9.93
2019-06-07T03:43:49.134Z,9.27
2019-06-07T03:46:16.660Z,9.37
2019-06-07T03:48:44.152Z,9.13
2019-06-07T03:51:24.043Z,9.60
2019-06-07T03:53:41.024Z,9.20
2019-06-07T03:56:08.905Z,8.87
2019-06-07T03:58:47.978Z,8.70
2019-06-07T04:01:05.821Z,9.10
2019-06-07T04:03:42.698Z,8.40
2019-06-07T04:06:02.631Z,8.17
2019-06-07T04:08:30.716Z,8.37
2019-06-07T04:11:00.733Z,9.17
2019-06-07T04:13:30.406Z,8.57
2019-06-07T04:15:57.693Z,9.47
2019-06-07T04:18:25.207Z,9.00
2019-06-07T04:20:52.702Z,8.43
2019-06-07T04:23:31.019Z,8.53
2019-06-07T04:25:49.527Z,8.80
2019-06-07T04:28:17.002Z,8.50
2019-06-07T04:30:44.856Z,8.70
2019-06-07T04:33:12.621Z,8.90
2019-06-07T04:35:43.102Z,8.20
2019-06-07T04:38:09.730Z,8.57
2019-06-07T04:40:39.962Z,8.40
2019-06-07T04:43:06.633Z,8.00
2019-06-07T04:45:41.917Z,8.90
2019-06-07T04:48:04.268Z,8.33
2019-06-07T04:50:34.230Z,8.33
2019-06-07T04:53:01.176Z,8.33
2019-06-07T04:55:29.088Z,8.43
2019-06-07T04:57:56.846Z,8.70
2019-06-07T05:02:57.510Z,8.93
2019-06-07T05:05:25.030Z,8.73
2019-06-07T05:07:52.584Z,9.57
2019-06-07T05:10:20.066Z,8.93
2019-06-07T05:12:47.573Z,10.40
2019-06-07T05:15:15.209Z,9.67
2019-06-07T05:17:44.970Z,10.77
2019-06-07T05:20:12.077Z,11.37
2019-06-07T05:22:44.327Z,10.63
2019-06-07T05:25:08.979Z,11.83
2019-06-07T05:27:38.580Z,11.40
2019-06-07T05:30:23.754Z,11.47
2019-06-07T05:32:37.550Z,11.57
2019-06-07T05:35:05.439Z,11.47
2019-06-07T05:37:33.933Z,11.67
2019-06-07T05:40:02.243Z,10.83
2019-06-07T05:42:29.743Z,10.30
2019-06-07T05:44:57.213Z,10.17
2019-06-07T05:47:25.400Z,9.40
2019-06-07T05:49:53.337Z,9.13
2019-06-07T05:52:20.900Z,8.70
2019-06-07T05:54:48.405Z,7.93
2019-06-07T05:57:20.774Z,7.17
2019-06-07T05:59:48.285Z,7.03
2019-06-07T06:02:22.515Z,7.37
2019-06-07T06:04:48.937Z,6.63
2019-06-07T06:07:14.483Z,7.63
2019-06-07T06:09:43.300Z,6.40
2019-06-07T06:12:11.758Z,6.50
2019-06-07T06:14:40.976Z,7.03
2019-06-07T06:17:08.583Z,7.40
2019-06-07T06:19:36.885Z,6.73
2019-06-07T06:22:05.571Z,6.23
2019-06-07T06:24:33.072Z,7.13
2019-06-07T06:27:18.908Z,6.30
2019-06-07T06:29:29.975Z,5.93
2019-06-07T06:32:40.555Z,5.67
2019-06-07T06:34:26.965Z,5.60
2019-06-07T06:36:54.507Z,5.47
2019-06-07T06:39:22.119Z,5.60
2019-06-07T06:42:00.820Z,4.97
2019-06-07T06:44:19.132Z,5.20
2019-06-07T06:46:56.225Z,5.13
2019-06-07T06:49:16.389Z,4.90
2019-06-07T06:51:49.496Z,4.33
2019-06-07T06:54:13.497Z,4.83
2019-06-07T06:56:44.860Z,4.67
2019-06-07T06:59:37.329Z,4.60
2019-06-07T07:01:39.914Z,4.70
2019-06-07T07:04:12.782Z,4.33
2019-06-07T07:06:36.939Z,3.83
2019-06-07T07:09:05.718Z,4.37
2019-06-07T07:11:33.516Z,4.27
2019-06-07T07:14:01.152Z,4.70
2019-06-07T07:16:28.895Z,3.97
2019-06-07T07:18:56.595Z,4.23
2019-06-07T07:21:24.199Z,4.77
2019-06-07T07:24:14.788Z,4.77
2019-06-07T07:26:22.330Z,4.63
2019-06-07T07:28:51.779Z,4.60
2019-06-07T07:31:19.282Z,4.70
2019-06-07T07:36:35.587Z,4.60
2019-06-07T07:38:51.817Z,3.70
2019-06-07T07:41:17.140Z,3.83
2019-06-07T07:43:50.489Z,4.40
2019-06-07T07:46:29.061Z,4.70
2019-06-07T07:48:43.589Z,4.90
2019-06-07T07:51:11.097Z,4.90
2019-06-07T07:53:52.256Z,4.60
2019-06-07T07:56:08.305Z,3.83
2019-06-07T07:58:35.854Z,4.33
2019-06-07T08:01:10.238Z,4.40
2019-06-07T08:03:32.752Z,4.30
2019-06-07T08:06:00.404Z,4.70
2019-06-07T08:08:27.884Z,4.60
2019-06-07T08:10:58.570Z,4.30
2019-06-07T08:13:27.435Z,4.80
2019-06-07T08:15:59.102Z,4.97
2019-06-07T08:18:23.465Z,4.40
2019-06-07T08:21:08.794Z,4.33
2019-06-07T08:23:20.295Z,4.40
2019-06-07T08:25:49.153Z,4.43
2019-06-07T08:28:16.681Z,3.90
2019-06-07T08:30:52.425Z,4.20
2019-06-07T08:33:26.130Z,4.17
2019-06-07T08:36:05.804Z,3.87
2019-06-07T08:38:26.885Z,4.30
2019-06-07T08:40:41.359Z,4.13
2019-06-07T08:43:19.610Z,4.23
2019-06-07T08:45:38.560Z,4.47
2019-06-07T08:48:26.444Z,3.90
2019-06-07T08:50:36.004Z,3.40
2019-06-07T08:53:11.957Z,4.30
2019-06-07T08:55:32.853Z,4.80
2019-06-07T08:58:04.573Z,4.70
2019-06-07T09:00:45.269Z,4.80
2019-06-07T09:03:05.044Z,4.87
2019-06-07T09:05:28.646Z,4.03
2019-06-07T09:08:21.052Z,3.80
2019-06-07T09:10:25.514Z,3.90
2019-06-07T09:12:57.911Z,4.00
2019-06-07T09:15:24.737Z,3.73
2019-06-07T09:20:36.566Z,4.40
2019-06-07T09:22:51.293Z,4.03
2019-06-07T09:25:21.457Z,4.23
2019-06-07T09:27:48.675Z,4.40
2019-06-07T09:30:19.651Z,4.80
2019-06-07T09:32:47.103Z,4.67
2019-06-07T09:35:17.419Z,4.80
2019-06-07T09:40:25.064Z,4.40
2019-06-07T09:42:42.733Z,4.43
2019-06-07T09:45:13.944Z,3.97
2019-06-07T09:47:39.903Z,4.67
2019-06-07T09:50:11.858Z,5.03
2019-06-07T09:52:57.125Z,4.57
2019-06-07T09:55:19.528Z,4.30
2019-06-07T09:57:35.501Z,4.10
2019-06-07T10:00:37.084Z,4.20
2019-06-07T10:02:34.875Z,3.80
2019-06-07T10:05:05.219Z,3.97
2019-06-07T10:07:32.230Z,3.80
2019-06-07T10:12:29.144Z,4.50
2019-06-07T10:14:56.693Z,4.37
2019-06-07T10:17:24.181Z,4.00
2019-06-07T10:19:51.672Z,4.37
2019-06-07T10:22:19.169Z,4.53
2019-06-07T10:24:46.763Z,4.03
2019-06-07T10:27:14.265Z,4.20
2019-06-07T10:29:41.816Z,4.13
2019-06-07T10:32:09.366Z,4.63
2019-06-07T10:34:36.885Z,4.13
2019-06-07T10:37:08.771Z,4.40
2019-06-07T10:39:47.606Z,3.80
2019-06-07T10:42:04.604Z,4.10
2019-06-07T10:44:32.582Z,3.43
2019-06-07T10:47:01.609Z,3.73
2019-06-07T10:49:29.279Z,3.73
2019-06-07T10:51:56.877Z,3.33
2019-06-07T10:54:30.294Z,2.70
2019-06-07T10:56:53.665Z,2.80
2019-06-07T10:59:21.542Z,3.20
2019-06-07T11:01:49.117Z,3.23
2019-06-07T11:04:16.685Z,3.80
2019-06-07T11:06:44.337Z,3.70
2019-06-07T11:09:12.082Z,3.80
2019-06-07T11:11:39.630Z,4.40
2019-06-07T11:14:08.606Z,3.60
2019-06-07T11:16:39.104Z,3.70
2019-06-07T11:19:08.025Z,3.90
2019-06-07T11:21:35.573Z,3.60
2019-06-07T11:24:03.608Z,3.87
2019-06-07T11:26:31.205Z,4.60
2019-06-07T11:28:58.692Z,4.20
2019-06-07T11:31:26.237Z,4.33
2019-06-07T11:33:53.731Z,4.13
2019-06-07T11:36:21.209Z,4.17
2019-06-07T11:38:48.722Z,4.60
2019-06-07T11:41:16.215Z,4.20
2019-06-07T11:43:43.716Z,4.07
2019-06-07T11:46:11.406Z,4.40
2019-06-07T11:48:39.274Z,4.40
2019-06-07T11:51:08.453Z,4.70
2019-06-07T11:53:36.265Z,4.40
2019-06-07T11:56:03.968Z,4.43
2019-06-07T11:58:31.545Z,4.37
2019-06-07T12:00:59.133Z,4.00
2019-06-07T12:03:26.822Z,4.07
2019-06-07T12:05:54.530Z,4.00
2019-06-07T12:08:21.988Z,3.87
2019-06-07T12:10:49.642Z,3.50
2019-06-07T12:13:17.729Z,3.87
2019-06-07T12:15:48.894Z,3.90
2019-06-07T12:18:17.362Z,4.13
2019-06-07T12:20:44.896Z,4.10
2019-06-07T12:23:13.887Z,4.03
2019-06-07T12:25:41.684Z,3.87
2019-06-07T12:28:10.584Z,3.90
2019-06-07T12:30:38.204Z,3.43
2019-06-07T12:33:05.859Z,3.43
2019-06-07T12:35:33.428Z,3.40
2019-06-07T12:38:00.961Z,3.40
2019-06-07T12:40:32.274Z,3.63
2019-06-07T12:42:57.749Z,3.77
2019-06-07T12:45:42.847Z,3.97
2019-06-07T12:47:54.679Z,3.50
2019-06-07T12:50:23.781Z,3.43
2019-06-07T12:52:51.773Z,3.83
2019-06-07T12:55:20.343Z,3.77
2019-06-07T12:57:49.194Z,3.37
2019-06-07T13:00:18.090Z,3.87
2019-06-07T13:02:45.769Z,3.70
2019-06-07T13:05:13.431Z,3.40
2019-06-07T13:07:40.929Z,3.67
2019-06-07T13:10:08.925Z,3.97
2019-06-07T13:12:36.488Z,3.63
2019-06-07T13:15:04.224Z,3.43
2019-06-07T13:17:31.689Z,3.93
2019-06-07T13:19:59.293Z,4.00
2019-06-07T13:22:26.856Z,3.97
2019-06-07T13:24:54.394Z,3.67
2019-06-07T13:27:22.499Z,3.80
2019-06-07T13:29:50.176Z,3.90
2019-06-07T13:32:17.710Z,3.72
2019-06-07T13:34:45.221Z,3.80
2019-06-07T13:37:12.988Z,4.17
2019-06-07T13:39:40.788Z,4.03
2019-06-07T13:42:08.243Z,4.20
2019-06-07T13:44:35.752Z,4.07
2019-06-07T13:47:03.240Z,3.77
2019-06-07T13:49:30.709Z,4.17
2019-06-07T13:51:58.181Z,4.05
2019-06-07T13:54:25.769Z,3.85
2019-06-07T13:57:02.329Z,3.45
2019-06-07T13:59:22.626Z,3.60
2019-06-07T14:01:50.112Z,3.80
2019-06-07T14:04:18.786Z,3.95
2019-06-07T14:06:46.521Z,3.52
2019-06-07T14:09:14.152Z,4.00
2019-06-07T14:11:50.430Z,3.92
2019-06-07T14:14:11.022Z,3.75
2019-06-07T14:16:38.526Z,3.77
2019-06-07T14:19:06.031Z,3.83
2019-06-07T14:21:33.573Z,3.98
2019-06-07T14:24:01.193Z,3.95
2019-06-07T14:26:29.434Z,3.85
2019-06-07T14:28:56.965Z,3.65
2019-06-07T14:31:26.187Z,3.35
2019-06-07T14:33:53.866Z,3.60
2019-06-07T14:36:22.660Z,3.77
2019-06-07T14:38:50.227Z,3.25
2019-06-07T14:41:17.775Z,3.47
2019-06-07T14:43:45.274Z,3.58
2019-06-07T14:46:12.858Z,3.30
2019-06-07T14:48:40.390Z,3.40
2019-06-07T14:51:07.889Z,3.12
2019-06-07T14:53:35.347Z,3.33
2019-06-07T14:56:02.865Z,3.42
2019-06-07T14:58:31.706Z,3.25
2019-06-07T15:00:59.249Z,3.27
2019-06-07T15:03:26.741Z,3.40
2019-06-07T15:05:54.252Z,3.27
2019-06-07T15:08:21.899Z,3.42
2019-06-07T15:10:49.442Z,2.95
2019-06-07T15:13:17.258Z,3.70
2019-06-07T15:15:44.696Z,3.20
2019-06-07T15:18:12.275Z,3.37
2019-06-07T15:20:39.728Z,3.30
2019-06-07T15:23:07.483Z,3.17
2019-06-07T15:25:35.552Z,3.30
2019-06-07T15:28:03.048Z,2.80
2019-06-07T15:30:31.601Z,3.00
2019-06-07T15:32:59.957Z,3.10
2019-06-07T15:35:28.113Z,3.10
2019-06-07T15:37:55.631Z,3.03
2019-06-07T15:40:23.166Z,3.10
2019-06-07T15:42:53.114Z,3.22
2019-06-07T15:45:20.033Z,3.20
2019-06-07T15:47:47.484Z,2.83
2019-06-07T15:50:15.928Z,3.30
2019-06-07T15:52:43.502Z,3.37
2019-06-07T15:55:11.231Z,3.20
2019-06-07T15:57:39.672Z,2.90
2019-06-07T16:00:08.428Z,3.13
2019-06-07T16:02:35.918Z,3.43
2019-06-07T16:05:03.990Z,3.03
2019-06-07T16:07:32.015Z,3.20
2019-06-07T16:09:59.661Z,2.90
2019-06-07T16:12:27.167Z,3.00
2019-06-07T16:14:54.694Z,3.10
2019-06-07T16:17:22.220Z,2.90
2019-06-07T16:19:49.725Z,3.10
2019-06-07T16:22:17.286Z,3.02
2019-06-07T16:24:44.844Z,2.80
2019-06-07T16:27:12.342Z,3.43
2019-06-07T16:29:40.656Z,3.22
2019-06-07T16:32:08.234Z,3.20
2019-06-07T16:34:37.096Z,2.70
2019-06-07T16:37:05.089Z,3.03
2019-06-07T16:39:33.567Z,3.60
2019-06-07T16:42:01.198Z,3.40
2019-06-07T16:44:28.668Z,2.93
2019-06-07T16:46:56.132Z,10.97
2019-06-07T16:49:23.604Z,7.23
2019-06-07T16:51:51.256Z,4.27
2019-06-07T16:54:18.753Z,2.93
2019-06-07T16:56:50.912Z,2.97
2019-06-07T16:59:16.728Z,3.40
2019-06-07T17:01:45.313Z,3.53
2019-06-07T17:04:12.831Z,3.40
2019-06-07T17:06:41.593Z,3.93
2019-06-07T17:09:09.225Z,7.20
2019-06-07T17:11:38.148Z,8.27
2019-06-07T17:14:05.676Z,7.50
2019-06-07T17:16:33.193Z,10.30
2019-06-07T17:19:00.745Z,11.95
2019-06-07T17:21:28.239Z,9.80
2019-06-07T17:23:55.709Z,4.05
2019-06-07T17:26:23.322Z,7.57
2019-06-07T17:28:50.883Z,4.20
2019-06-07T17:31:18.416Z,11.67
2019-06-07T17:33:46.073Z,4.47
2019-06-07T17:36:13.694Z,3.43
2019-06-07T17:38:42.350Z,5.37
2019-06-07T17:41:11.827Z,3.37
2019-06-07T17:43:49.383Z,3.40
2019-06-07T17:46:08.731Z,3.63
2019-06-07T17:48:36.203Z,2.80
2019-06-07T17:51:03.958Z,3.60
2019-06-07T17:53:31.431Z,3.53
2019-06-07T17:55:58.917Z,3.50
2019-06-07T17:58:26.453Z,2.70
2019-06-07T18:00:53.975Z,4.23
2019-06-07T18:03:21.471Z,3.10
2019-06-07T18:05:49.400Z,6.43
2019-06-07T18:08:17.008Z,3.37
2019-06-07T18:10:45.679Z,3.30
2019-06-07T18:13:13.227Z,3.57
2019-06-07T18:15:41.459Z,3.47
2019-06-07T18:18:09.141Z,3.90
2019-06-07T18:20:36.708Z,5.03
2019-06-07T18:23:04.374Z,3.53
2019-06-07T18:25:32.232Z,4.37
2019-06-07T18:27:59.828Z,4.40
2019-06-07T18:30:27.446Z,4.20
2019-06-07T18:32:55.171Z,5.30
2019-06-07T18:35:22.740Z,4.00
2019-06-07T18:37:51.165Z,4.10
2019-06-07T18:40:18.703Z,3.50
2019-06-07T18:42:47.108Z,6.10
2019-06-07T18:45:14.628Z,3.77
2019-06-07T18:47:42.187Z,3.73
2019-06-07T18:50:09.704Z,4.20
2019-06-07T18:52:38.442Z,5.43
2019-06-07T18:55:05.948Z,6.97
2019-06-07T18:57:33.474Z,9.10
2019-06-07T19:00:01.006Z,5.23
2019-06-07T19:02:28.536Z,3.63
2019-06-07T19:04:56.388Z,11.87
2019-06-07T19:07:23.975Z,3.93
2019-06-07T19:09:52.576Z,16.73
2019-06-07T19:12:20.248Z,7.23
2019-06-07T19:14:49.234Z,4.90
2019-06-07T19:17:16.841Z,3.77
2019-06-07T19:19:44.450Z,4.40
2019-06-07T19:22:11.968Z,3.90
2019-06-07T19:24:39.611Z,4.07
2019-06-07T19:27:07.117Z,4.63
2019-06-07T19:29:34.744Z,4.80
2019-06-07T19:32:02.348Z,3.93
2019-06-07T19:34:30.050Z,4.13
2019-06-07T19:36:57.789Z,3.70
2019-06-07T19:39:25.440Z,3.70
2019-06-07T19:41:53.980Z,3.33
2019-06-07T19:44:21.608Z,3.43
2019-06-07T19:46:49.232Z,3.97
2019-06-07T19:49:16.727Z,4.43
2019-06-07T19:51:44.369Z,4.53
2019-06-07T19:54:11.933Z,4.40
2019-06-07T19:56:39.408Z,3.70
2019-06-07T19:59:07.031Z,4.00
2019-06-07T20:01:34.606Z,3.37
2019-06-07T20:04:02.418Z,3.97
2019-06-07T20:06:30.082Z,3.80
2019-06-07T20:08:58.751Z,4.20
2019-06-07T20:11:26.302Z,5.17
2019-06-07T20:13:54.461Z,6.53
2019-06-07T20:16:21.956Z,6.57
2019-06-07T20:18:49.508Z,5.43
2019-06-07T20:21:17.046Z,4.80
2019-06-07T20:23:44.547Z,5.40
2019-06-07T20:26:12.126Z,4.43
2019-06-07T20:28:39.725Z,4.23
2019-06-07T20:31:08.251Z,4.43
2019-06-07T20:33:35.870Z,4.90
2019-06-07T20:36:04.668Z,4.40
2019-06-07T20:38:32.515Z,4.70
2019-06-07T20:41:01.076Z,4.43
2019-06-07T20:43:28.844Z,5.00
2019-06-07T20:45:59.154Z,4.40
2019-06-07T20:48:25.755Z,5.20
2019-06-07T20:50:53.386Z,4.77
2019-06-07T20:53:20.931Z,4.43
2019-06-07T20:55:48.470Z,4.17
2019-06-07T20:58:16.085Z,4.80
2019-06-07T21:00:43.567Z,5.00
2019-06-07T21:03:11.135Z,4.63
2019-06-07T21:05:38.756Z,5.00
2019-06-07T21:08:10.666Z,4.73
2019-06-07T21:10:35.646Z,4.67
2019-06-07T21:13:03.904Z,4.47
2019-06-07T21:15:31.484Z,4.37
2019-06-07T21:18:00.193Z,4.20
2019-06-07T21:20:27.731Z,4.60
2019-06-07T21:22:55.238Z,4.37
2019-06-07T21:25:22.808Z,4.43
2019-06-07T21:27:50.292Z,4.23
2019-06-07T21:30:17.825Z,4.50
2019-06-07T21:32:45.456Z,4.00
2019-06-07T21:35:13.048Z,4.30
2019-06-07T21:37:40.605Z,4.77
2019-06-07T21:40:08.424Z,4.43
2019-06-07T21:42:36.056Z,4.97
2019-06-07T21:45:05.875Z,4.87
2019-06-07T21:47:33.093Z,4.70
2019-06-07T21:50:00.644Z,4.90
2019-06-07T21:52:28.237Z,4.80
2019-06-07T21:54:55.733Z,4.37
2019-06-07T21:57:23.235Z,4.47
2019-06-07T21:59:50.759Z,5.17
2019-06-07T22:02:18.377Z,4.77
2019-06-07T22:04:46.211Z,5.23
2019-06-07T22:07:13.782Z,5.27
2019-06-07T22:09:41.399Z,5.10
2019-06-07T22:12:10.043Z,4.57
2019-06-07T22:14:37.659Z,4.90
2019-06-07T22:17:06.128Z,4.87
2019-06-07T22:19:33.717Z,5.00
2019-06-07T22:22:02.975Z,4.30
2019-06-07T22:24:30.548Z,4.70
2019-06-07T22:26:58.069Z,4.70
2019-06-07T22:29:25.581Z,4.30
2019-06-07T22:31:53.123Z,4.40
2019-06-07T22:34:20.595Z,4.50
2019-06-07T22:36:48.215Z,4.83
2019-06-07T22:39:15.899Z,4.90
2019-06-07T22:41:43.611Z,4.93
2019-06-07T22:44:11.141Z,4.80
2019-06-07T22:46:38.865Z,4.40
2019-06-07T22:49:07.107Z,5.20
2019-06-07T22:51:34.813Z,5.03
2019-06-07T22:54:02.312Z,4.40
2019-06-07T22:56:35.264Z,4.60
2019-06-07T22:59:02.914Z,4.27
2019-06-07T23:01:30.461Z,4.40
2019-06-07T23:03:58.072Z,4.43
2019-06-07T23:06:25.576Z,4.50
2019-06-07T23:08:53.113Z,4.63
2019-06-07T23:11:20.654Z,4.90
2019-06-07T23:13:48.230Z,4.70
2019-06-07T23:16:15.879Z,4.80
2019-06-07T23:18:43.403Z,4.87
2019-06-07T23:21:11.677Z,4.57
2019-06-07T23:23:39.297Z,4.77
2019-06-07T23:26:06.836Z,5.43
2019-06-07T23:28:34.331Z,4.87
2019-06-07T23:31:01.864Z,4.80
2019-06-07T23:33:29.473Z,4.60
2019-06-07T23:35:57.007Z,4.60
2019-06-07T23:38:24.563Z,4.93
2019-06-07T23:40:52.137Z,4.77
2019-06-07T23:43:19.677Z,4.90
2019-06-07T23:45:47.207Z,5.20
2019-06-07T23:48:15.374Z,5.57
2019-06-07T23:50:42.877Z,5.83
2019-06-07T23:53:11.616Z,5.20
2019-06-07T23:55:39.243Z,4.97
2019-06-07T23:58:06.790Z,5.67
